Time;durP1;ratioP1;P1;durP2;ratioP2;P2;SDS_P1;SDS_P2;PMS_P1;PMS_P2;Temp;Humidity;BMP_temperature;BMP_pressure;BME280_temperature;BME280_humidity;BME280_pressure;Samples;Min_cycle;Max_cycle;Signal;HPM_P1;HPM_P2
2021/03/13 00:01:24;;;;;;;46.00;20.32;;;;;;;-1.50;94.61;99568.36;1784195;80;21161;-64
2021/03/13 00:03:53;;;;;;;38.98;19.23;;;;;;;-1.50;94.57;99558.03;1784193;80;21384;-64
2021/03/13 00:06:21;;;;;;;40.58;19.10;;;;;;;-1.46;94.62;99560.20;1784089;80;21172;-64
2021/03/13 00:08:49;;;;;;;54.75;23.32;;;;;;;-1.42;94.62;99560.66;1784235;80;21156;-63
2021/03/13 00:11:16;;;;;;;57.53;24.35;;;;;;;-1.39;94.68;99564.53;1784057;79;21219;-65
2021/03/13 00:13:44;;;;;;;38.92;20.27;;;;;;;-1.37;94.68;99571.85;1784369;80;21141;-65
2021/03/13 00:16:13;;;;;;;53.20;21.52;;;;;;;-1.32;94.68;99569.28;1784078;80;21376;-65
2021/03/13 00:18:41;;;;;;;49.58;21.70;;;;;;;-1.30;94.69;99562.40;1785386;80;21615;-66
2021/03/13 00:21:09;;;;;;;43.68;18.82;;;;;;;-1.28;94.68;99556.80;1785655;80;21168;-64
2021/03/13 00:23:37;;;;;;;55.67;19.55;;;;;;;-1.25;94.66;99557.23;1785892;80;21177;-64
2021/03/13 00:26:04;;;;;;;47.13;20.27;;;;;;;-1.25;94.65;99552.92;1785706;80;21383;-64
2021/03/13 00:28:33;;;;;;;49.00;18.90;;;;;;;-1.26;94.58;99547.34;1785985;78;22202;-64
2021/03/13 00:31:01;;;;;;;46.00;18.98;;;;;;;-1.21;94.52;99558.54;1785548;80;21164;-66
2021/03/13 00:33:34;;;;;;;43.70;19.20;;;;;;;-1.19;94.54;99559.84;1785870;78;21172;-65
2021/03/13 00:35:59;;;;;;;65.28;25.45;;;;;;;-1.17;94.56;99563.30;1785811;78;21171;-65
2021/03/13 00:38:27;;;;;;;85.17;27.75;;;;;;;-1.16;94.55;99561.98;1794811;78;21171;-64
2021/03/13 00:40:55;;;;;;;53.45;21.65;;;;;;;-1.13;94.59;99564.59;1818157;78;21362;-65
2021/03/13 00:43:22;;;;;;;57.88;22.37;;;;;;;-1.10;94.59;99554.69;1818331;78;21178;-64
2021/03/13 00:45:50;;;;;;;66.10;27.65;;;;;;;-1.09;94.62;99561.13;1818309;78;21123;-64
2021/03/13 00:50:23;;;;;;;73.53;28.23;;;;;;;-1.01;94.66;99553.80;1774989;79;23562;-66
2021/03/13 00:52:51;;;;;;;63.83;25.37;;;;;;;-1.05;94.72;99552.96;1747659;82;21597;-65
2021/03/13 00:55:19;;;;;;;69.87;29.10;;;;;;;-1.03;94.72;99552.53;1747626;82;22416;-67
2021/03/13 00:57:49;;;;;;;60.23;24.10;;;;;;;-1.01;94.69;99559.86;1747422;82;21227;-66
2021/03/13 01:00:23;;;;;;;64.67;27.75;;;;;;;-1.02;94.84;99559.41;1728876;82;21187;-66
2021/03/13 01:02:51;;;;;;;53.35;22.05;;;;;;;-1.01;94.88;99561.56;1717832;83;21187;-66
2021/03/13 01:05:19;;;;;;;54.88;22.25;;;;;;;-1.00;94.84;99558.13;1717765;83;21154;-66
2021/03/13 01:07:47;;;;;;;48.38;21.07;;;;;;;-0.97;94.87;99563.30;1717756;83;21410;-66
2021/03/13 01:10:35;;;;;;;51.80;22.95;;;;;;;-0.94;94.91;99568.05;1717615;83;21199;-66
2021/03/13 01:13:04;;;;;;;52.93;22.48;;;;;;;-0.92;94.94;99559.87;1717987;83;21641;-66
2021/03/13 01:15:34;;;;;;;67.37;26.10;;;;;;;-0.89;94.93;99564.17;1718039;83;21181;-65
2021/03/13 01:18:02;;;;;;;64.65;26.97;;;;;;;-0.88;94.90;99562.86;1730540;82;21096;-66
2021/03/13 01:20:31;;;;;;;72.37;28.77;;;;;;;-0.84;94.93;99562.44;1747709;82;21201;-65
2021/03/13 01:22:58;;;;;;;78.87;31.45;;;;;;;-0.81;94.90;99568.04;1747515;82;21131;-65
2021/03/13 01:25:26;;;;;;;64.05;25.85;;;;;;;-0.79;94.85;99565.87;1747695;82;21164;-65
2021/03/13 01:27:55;;;;;;;68.80;26.23;;;;;;;-0.76;94.82;99565.91;1724070;82;21562;-66
2021/03/13 01:30:23;;;;;;;61.40;26.82;;;;;;;-0.79;94.83;99567.61;1717750;83;21170;-65
2021/03/13 01:32:52;;;;;;;57.00;25.27;;;;;;;-0.76;94.81;99578.83;1717759;82;21390;-66
2021/03/13 01:35:22;;;;;;;57.38;24.02;;;;;;;-0.77;94.82;99575.80;1717809;82;21152;-64
2021/03/13 01:37:49;;;;;;;61.30;25.52;;;;;;;-0.77;94.78;99574.50;1717850;82;21159;-66
2021/03/13 01:40:18;;;;;;;57.03;26.23;;;;;;;-0.76;94.72;99583.11;1717635;83;21195;-66
2021/03/13 01:42:48;;;;;;;50.90;19.67;;;;;;;-0.77;94.67;99587.87;1718007;83;21159;-67
2021/03/13 01:45:22;;;;;;;51.25;21.48;;;;;;;-0.75;94.73;99588.73;1717886;83;21435;-66
2021/03/13 01:47:52;;;;;;;80.28;27.98;;;;;;;-0.73;94.81;99598.21;1717852;83;21183;-65
2021/03/13 01:50:21;;;;;;;68.62;31.02;;;;;;;-0.69;94.91;99602.94;1698503;83;22244;-65
2021/03/13 01:52:49;;;;;;;99.22;37.75;;;;;;;-0.66;94.96;99603.81;1726111;83;21158;-65
2021/03/13 01:55:19;;;;;;;89.13;32.70;;;;;;;-0.62;95.01;99598.63;1726312;83;21594;-66
2021/03/13 01:57:48;;;;;;;89.80;35.58;;;;;;;-0.59;94.96;99598.65;1726238;83;22290;-65
2021/03/13 02:00:21;;;;;;;75.30;31.27;;;;;;;-0.57;94.92;99612.45;1725652;83;21194;-66
2021/03/13 02:03:01;;;;;;;88.92;37.80;;;;;;;-0.57;94.93;99618.91;1725273;83;21194;-64
2021/03/13 02:05:34;;;;;;;86.05;34.60;;;;;;;-0.57;94.86;99622.79;1751226;79;21183;-72
2021/03/13 02:08:22;;;;;;;81.75;35.13;;;;;;;-0.57;94.85;99627.97;1785239;80;21131;-72
2021/03/13 02:11:19;;;;;;;90.65;36.88;;;;;;;-0.56;94.81;99630.97;1785413;80;21179;-72
2021/03/13 02:14:19;;;;;;;96.92;41.40;;;;;;;-0.57;94.80;99627.97;1785435;80;21174;-71
2021/03/13 02:17:08;;;;;;;96.57;43.57;;;;;;;-0.51;94.95;99625.36;1845517;76;23021;-73
2021/03/13 02:20:04;;;;;;;84.58;37.98;;;;;;;-0.57;94.88;99627.97;1728298;78;21264;-66
2021/03/13 02:22:39;;;;;;;73.45;33.83;;;;;;;-0.56;94.97;99634.84;1720892;83;21283;-65
2021/03/13 02:25:57;;;;;;;82.10;35.68;;;;;;;-0.57;94.96;99640.89;1723119;81;21181;-64
2021/03/13 02:29:00;;;;;;;75.75;34.25;;;;;;;-0.54;95.07;99649.94;1751960;81;21194;-65
2021/03/13 02:31:30;;;;;;;55.10;23.32;;;;;;;-0.49;95.21;99646.91;1721320;81;21206;-64
2021/03/13 02:33:59;;;;;;;79.05;35.90;;;;;;;-0.44;95.24;99650.36;1737489;81;21268;-65
2021/03/13 02:36:28;;;;;;;73.70;33.42;;;;;;;-0.40;95.29;99649.50;1749355;81;21409;-65
2021/03/13 02:39:08;;;;;;;67.27;30.30;;;;;;;-0.37;95.29;99650.78;1752453;81;21222;-66
2021/03/13 02:41:46;;;;;;;72.58;32.35;;;;;;;-0.35;95.23;99656.82;1752332;81;21166;-64
2021/03/13 02:44:15;;;;;;;75.42;32.40;;;;;;;-0.34;95.17;99653.39;1752732;81;21179;-63
2021/03/13 02:46:49;;;;;;;79.75;35.17;;;;;;;-0.31;95.13;99656.41;1751862;81;21197;-61
2021/03/13 02:49:21;;;;;;;80.28;34.33;;;;;;;-0.30;95.10;99656.41;1752652;81;21862;-62
2021/03/13 02:51:50;;;;;;;70.17;34.25;;;;;;;-0.33;95.08;99647.34;1752554;81;21202;-62
2021/03/13 02:54:18;;;;;;;71.45;33.70;;;;;;;-0.27;95.09;99657.70;1723776;81;21201;-61
2021/03/13 02:56:47;;;;;;;76.42;33.55;;;;;;;-0.24;95.02;99659.41;1752648;81;21178;-61
2021/03/13 02:59:18;;;;;;;78.40;35.98;;;;;;;-0.24;95.00;99661.56;1752701;81;21198;-62
2021/03/13 03:01:48;;;;;;;84.70;34.92;;;;;;;-0.24;94.95;99658.12;1749091;81;21434;-61
2021/03/13 03:04:17;;;;;;;106.60;40.38;;;;;;;-0.25;94.89;99661.15;1752745;81;21194;-61
2021/03/13 03:06:49;;;;;;;91.63;33.95;;;;;;;-0.24;94.92;99657.68;1776497;80;21190;-61
2021/03/13 03:09:17;;;;;;;106.05;40.48;;;;;;;-0.22;94.93;99654.66;1752621;81;21175;-61
2021/03/13 03:11:47;;;;;;;102.90;41.40;;;;;;;-0.20;94.87;99651.23;1752723;80;21225;-61
2021/03/13 03:14:16;;;;;;;85.38;36.20;;;;;;;-0.19;94.81;99647.33;1752675;81;21385;-60
2021/03/13 03:16:48;;;;;;;74.27;33.98;;;;;;;-0.19;94.86;99643.45;1752649;81;21662;-61
2021/03/13 03:19:18;;;;;;;68.92;36.03;;;;;;;-0.20;94.86;99643.47;1730671;81;21169;-62
2021/03/13 03:21:47;;;;;;;80.00;40.05;;;;;;;-0.24;94.78;99640.86;1678779;83;21225;-63
2021/03/13 03:24:15;;;;;;;69.82;33.53;;;;;;;-0.22;94.76;99646.90;1726388;83;21684;-61
2021/03/13 03:26:43;;;;;;;63.13;32.78;;;;;;;-0.23;94.76;99640.02;1726256;83;21377;-62
2021/03/13 03:29:11;;;;;;;62.23;31.75;;;;;;;-0.23;94.76;99636.54;1725929;83;21214;-62
2021/03/13 03:31:39;;;;;;;67.60;35.98;;;;;;;-0.24;94.71;99637.42;1725895;83;21150;-63
2021/03/13 03:34:08;;;;;;;63.20;33.58;;;;;;;-0.28;94.64;99638.28;1725811;83;21209;-62
2021/03/13 03:36:37;;;;;;;69.92;34.45;;;;;;;-0.32;94.54;99645.20;1747209;79;21198;-68
2021/03/13 03:39:04;;;;;;;66.60;33.20;;;;;;;-0.36;94.42;99638.30;1746570;81;22684;-69
2021/03/13 03:41:34;;;;;;;58.17;26.73;;;;;;;-0.41;94.33;99640.03;1735999;82;21286;-69
2021/03/13 03:44:20;;;;;;;61.18;32.20;;;;;;;-0.46;94.27;99641.73;1690013;82;21177;-69
2021/03/13 03:46:55;;;;;;;61.33;28.17;;;;;;;-0.51;94.13;99637.00;1735585;81;21252;-70
2021/03/13 03:49:24;;;;;;;64.17;33.58;;;;;;;-0.57;93.98;99636.58;1736306;82;21153;-70
2021/03/13 03:51:55;;;;;;;68.00;35.28;;;;;;;-0.64;93.81;99643.47;1764849;78;22695;-62
2021/03/13 03:54:23;;;;;;;70.33;37.13;;;;;;;-0.71;93.76;99641.75;1758881;81;21764;-63
2021/03/13 03:57:05;;;;;;;65.83;34.92;;;;;;;-0.77;93.71;99639.14;1757094;81;22060;-64
2021/03/13 03:59:36;;;;;;;66.12;32.63;;;;;;;-0.83;93.73;99637.83;1756061;81;21179;-62
2021/03/13 04:02:04;;;;;;;67.10;33.02;;;;;;;-0.91;93.62;99646.02;1756604;81;21178;-62
2021/03/13 04:04:32;;;;;;;73.78;37.33;;;;;;;-0.99;93.54;99652.89;1756952;81;21400;-62
2021/03/13 04:07:00;;;;;;;80.87;40.03;;;;;;;-1.08;93.58;99653.31;1758039;81;21186;-62
2021/03/13 04:09:28;;;;;;;134.60;52.75;;;;;;;-1.14;93.64;99655.88;1758490;81;21123;-62
2021/03/13 04:11:56;;;;;;;98.97;41.08;;;;;;;-1.20;93.84;99680.83;1758618;81;21182;-62
2021/03/13 04:14:24;;;;;;;98.25;44.05;;;;;;;-1.22;94.23;99680.84;1737148;81;21187;-62
2021/03/13 04:16:53;;;;;;;94.30;42.38;;;;;;;-1.17;94.69;99687.33;1758661;81;21347;-62
2021/03/13 04:19:21;;;;;;;74.50;36.63;;;;;;;-1.12;95.21;99694.22;1737220;81;21367;-61
2021/03/13 04:21:49;;;;;;;81.55;37.28;;;;;;;-1.04;95.70;99690.36;1758590;81;21161;-61
2021/03/13 04:24:17;;;;;;;65.20;33.50;;;;;;;-0.94;96.13;99704.19;1758541;80;21220;-61
2021/03/13 04:26:44;;;;;;;57.95;30.92;;;;;;;-0.85;96.51;99690.00;1758408;80;21176;-62
2021/03/13 04:29:13;;;;;;;72.22;36.50;;;;;;;-0.74;97.07;99685.68;1712974;81;22154;-61
2021/03/13 04:31:40;;;;;;;63.38;31.85;;;;;;;-0.61;97.56;99680.55;1758306;80;21247;-61
2021/03/13 04:34:10;;;;;;;66.22;33.90;;;;;;;-0.52;97.74;99682.70;1758386;80;21497;-63
2021/03/13 04:36:37;;;;;;;70.72;36.25;;;;;;;-0.43;97.80;99677.97;1728384;79;21143;-69
2021/03/13 04:39:06;;;;;;;63.23;32.85;;;;;;;-0.31;97.86;99688.31;1709688;83;21202;-71
2021/03/13 04:41:34;;;;;;;69.50;32.60;;;;;;;-0.22;97.92;99693.48;1709526;83;21815;-70
2021/03/13 04:44:02;;;;;;;68.05;35.35;;;;;;;-0.11;97.99;99702.98;1701441;83;21258;-70
2021/03/13 04:46:35;;;;;;;69.50;34.27;;;;;;;-0.05;98.11;99701.67;1725859;83;21207;-69
2021/03/13 04:49:05;;;;;;;68.90;35.05;;;;;;;-0.01;98.07;99700.37;1724776;83;21167;-69
2021/03/13 04:51:33;;;;;;;59.42;31.30;;;;;;;0.05;98.03;99706.43;1780386;77;21171;-60
2021/03/13 04:54:01;;;;;;;59.18;30.43;;;;;;;0.10;98.01;99702.09;1797348;79;21383;-62
2021/03/13 04:56:29;;;;;;;59.38;30.70;;;;;;;0.17;98.04;99711.14;1797295;79;21160;-61
2021/03/13 04:58:56;;;;;;;63.65;31.95;;;;;;;0.21;98.04;99709.42;1774769;79;21469;-63
2021/03/13 05:01:24;;;;;;;62.70;31.12;;;;;;;0.27;97.92;99712.42;1797223;79;21167;-62
2021/03/13 05:03:51;;;;;;;57.65;29.25;;;;;;;0.32;97.96;99709.38;1797677;79;21140;-63
2021/03/13 05:06:19;;;;;;;58.48;28.47;;;;;;;0.39;97.90;99714.97;1789840;78;21480;-71
2021/03/13 05:08:48;;;;;;;60.15;28.80;;;;;;;0.46;97.90;99713.23;1788126;80;21673;-70
2021/03/13 05:11:16;;;;;;;62.67;31.68;;;;;;;0.53;97.85;99721.41;1788170;80;21181;-70
2021/03/13 05:13:45;;;;;;;61.98;30.85;;;;;;;0.58;97.72;99714.07;1788374;80;21149;-69
2021/03/13 05:16:12;;;;;;;58.65;29.90;;;;;;;0.65;97.66;99719.25;1788162;80;21658;-70
2021/03/13 05:18:40;;;;;;;64.77;31.52;;;;;;;0.71;97.51;99720.05;1788717;80;22288;-71
2021/03/13 05:21:08;;;;;;;63.48;32.00;;;;;;;0.76;97.33;99722.63;1769738;77;21237;-63
2021/03/13 05:23:35;;;;;;;59.23;29.25;;;;;;;0.82;97.08;99732.98;1724628;83;21147;-63
2021/03/13 05:26:05;;;;;;;60.03;30.10;;;;;;;0.85;96.89;99732.97;1725373;83;21165;-63
2021/03/13 05:28:34;;;;;;;59.58;31.35;;;;;;;0.88;96.58;99738.16;1695048;84;21143;-64
2021/03/13 05:31:01;;;;;;;57.33;28.02;;;;;;;0.92;96.55;99742.47;1725405;83;21376;-65
2021/03/13 05:33:29;;;;;;;60.10;30.30;;;;;;;0.99;96.56;99740.28;1694937;84;21206;-62
2021/03/13 05:35:57;;;;;;;56.68;29.98;;;;;;;1.05;96.30;99744.12;1739272;80;21178;-70
2021/03/13 05:38:25;;;;;;;50.83;26.77;;;;;;;1.13;96.15;99749.70;1760969;80;21272;-69
2021/03/13 05:40:52;;;;;;;53.60;27.25;;;;;;;1.18;95.91;99751.86;1785660;80;21163;-71
2021/03/13 05:43:20;;;;;;;54.80;28.05;;;;;;;1.23;95.59;99748.80;1785861;80;22238;-71
2021/03/13 05:45:48;;;;;;;50.00;27.45;;;;;;;1.32;95.29;99756.98;1785732;80;21181;-71
2021/03/13 05:48:16;;;;;;;51.42;27.32;;;;;;;1.42;95.33;99758.20;1785734;80;21194;-72
2021/03/13 05:50:44;;;;;;;53.50;27.20;;;;;;;1.57;95.08;99768.08;1763558;79;21241;-65
2021/03/13 05:53:12;;;;;;;53.98;28.00;;;;;;;1.71;94.81;99774.04;1756691;81;21174;-62
2021/03/13 05:55:39;;;;;;;59.23;29.52;;;;;;;1.86;94.33;99773.94;1756884;81;21299;-63
2021/03/13 05:58:07;;;;;;;58.90;30.48;;;;;;;2.07;93.60;99778.52;1756654;81;21190;-62
2021/03/13 06:00:39;;;;;;;57.50;30.55;;;;;;;2.22;93.04;99774.50;1756749;81;21194;-63
2021/03/13 06:03:07;;;;;;;64.77;31.65;;;;;;;2.39;92.02;99786.48;1717967;83;21175;-63
2021/03/13 06:05:35;;;;;;;57.00;29.07;;;;;;;2.53;91.61;99782.00;1736454;78;21225;-70
2021/03/13 06:08:03;;;;;;;58.20;28.87;;;;;;;2.62;90.57;99791.45;1758161;80;22056;-71
2021/03/13 06:10:30;;;;;;;51.02;29.10;;;;;;;2.70;90.10;99799.61;1790661;79;21153;-72
2021/03/13 06:12:59;;;;;;;52.65;28.67;;;;;;;2.68;88.43;99800.05;1783307;80;21233;-71
2021/03/13 06:15:27;;;;;;;53.98;27.62;;;;;;;2.68;88.43;99800.05;1794247;78;21198;-72
2021/03/13 06:18:00;;;;;;;53.42;27.75;;;;;;;2.72;88.62;99813.91;1778797;79;21155;-72
2021/03/13 06:20:36;;;;;;;50.52;26.23;;;;;;;2.76;88.44;99819.91;1845195;76;22115;-64
2021/03/13 06:23:14;;;;;;;42.23;23.52;;;;;;;2.77;88.14;99826.86;1832446;75;21151;-63
2021/03/13 06:25:44;;;;;;;47.48;25.55;;;;;;;2.77;88.14;99826.86;1828377;76;21577;-63
2021/03/13 06:28:17;;;;;;;49.18;26.45;;;;;;;2.69;88.47;99828.21;1860890;75;21164;-64
2021/03/13 06:30:50;;;;;;;51.92;27.65;;;;;;;2.72;87.91;99836.86;1866151;76;21147;-62
2021/03/13 06:33:32;;;;;;;54.70;28.35;;;;;;;2.83;88.22;99847.58;1866196;76;21367;-64
2021/03/13 06:36:03;;;;;;;53.95;29.77;;;;;;;2.83;88.22;99847.58;1838862;75;21209;-73
2021/03/13 06:38:34;;;;;;;53.05;28.80;;;;;;;2.96;88.05;99849.19;1791376;80;21582;-72
2021/03/13 06:41:18;;;;;;;49.95;27.62;;;;;;;2.91;86.69;99844.03;1791076;80;21142;-73
2021/03/13 06:43:46;;;;;;;45.30;25.72;;;;;;;2.90;87.10;99853.17;1779503;80;21169;-73
2021/03/13 06:46:18;;;;;;;46.63;26.00;;;;;;;2.92;87.55;99852.69;1791110;80;21527;-75
2021/03/13 06:48:50;;;;;;;47.17;26.73;;;;;;;2.97;87.49;99850.92;1791425;80;22139;-73
2021/03/13 06:51:32;;;;;;;41.08;22.73;;;;;;;3.00;87.37;99848.28;1803648;75;21593;-63
2021/03/13 06:54:16;;;;;;;44.85;25.23;;;;;;;3.00;87.37;99848.28;1816973;78;21592;-62
2021/03/13 06:56:57;;;;;;;43.55;24.50;;;;;;;2.98;86.72;99850.03;1817186;78;21197;-63
2021/03/13 06:59:35;;;;;;;49.50;26.00;;;;;;;3.01;86.75;99853.89;1817399;78;22258;-62
2021/03/13 07:02:06;;;;;;;49.48;26.20;;;;;;;3.04;86.32;99856.48;1816917;78;21107;-63
2021/03/13 07:04:44;;;;;;;48.28;26.40;;;;;;;2.99;85.95;99849.59;1817428;78;21625;-62
2021/03/13 07:07:28;;;;;;;43.98;24.47;;;;;;;3.00;86.44;99844.38;1765789;78;21525;-71
2021/03/13 07:09:58;;;;;;;45.33;24.70;;;;;;;3.13;86.11;99841.22;1735441;82;21170;-73
2021/03/13 07:12:35;;;;;;;;;;;;;;;3.30;85.38;99831.90;1733543;82;21214;-72
2021/03/13 07:15:21;;;;;;;48.92;27.00;;;;;;;4.23;85.17;99837.53;1758658;81;20341;-72
2021/03/13 07:17:53;;;;;;;42.50;24.43;;;;;;;4.23;85.17;99837.53;1752614;81;21187;-72
2021/03/13 07:20:30;;;;;;;42.45;24.95;;;;;;;4.68;80.70;99836.36;1756659;78;21160;-65
2021/03/13 07:23:01;;;;;;;46.98;26.35;;;;;;;4.92;78.93;99836.80;1763392;80;21179;-67
2021/03/13 07:25:29;;;;;;;39.80;23.83;;;;;;;4.95;77.79;99830.23;1795842;79;21449;-70
2021/03/13 07:27:59;;;;;;;46.58;25.40;;;;;;;5.08;79.07;99837.37;1790317;79;21168;-68
2021/03/13 07:30:29;;;;;;;44.58;25.80;;;;;;;5.32;79.02;99843.88;1790949;79;21170;-67
2021/03/13 07:33:05;;;;;;;39.60;23.65;;;;;;;5.36;76.91;99837.67;1776333;80;21679;-66
2021/03/13 07:35:41;;;;;;;41.35;23.87;;;;;;;5.41;77.08;99838.02;1785060;78;21093;-72
2021/03/13 07:38:11;;;;;;;47.85;26.23;;;;;;;5.52;76.14;99839.11;1797472;79;21373;-72
2021/03/13 07:40:45;;;;;;;50.63;26.82;;;;;;;5.64;74.90;99836.22;1804519;78;21148;-71
2021/03/13 07:43:16;;;;;;;42.55;25.70;;;;;;;5.88;74.66;99845.27;1795078;79;21196;-71
2021/03/13 07:45:48;;;;;;;50.90;27.32;;;;;;;6.40;75.00;99843.23;1773034;80;21621;-71
2021/03/13 07:48:16;;;;;;;54.40;27.73;;;;;;;6.91;75.28;99836.70;1778373;80;21192;-72
2021/03/13 07:50:49;;;;;;;43.52;27.65;;;;;;;7.41;71.73;99828.32;1789591;76;22095;-67
2021/03/13 07:53:18;;;;;;;53.20;31.97;;;;;;;7.68;69.66;99828.82;1746956;81;21139;-67
2021/03/13 07:55:51;;;;;;;51.77;30.08;;;;;;;8.25;68.73;99836.71;1779335;80;21169;-68
2021/03/13 07:58:20;;;;;;;53.13;31.25;;;;;;;8.87;66.58;99824.59;1775144;80;21154;-66
2021/03/13 08:00:48;;;;;;;49.25;28.10;;;;;;;9.37;65.85;99828.48;1773588;80;21175;-68
2021/03/13 08:03:37;;;;;;;51.15;29.23;;;;;;;9.65;61.80;99828.77;1773722;80;21165;-66
2021/03/13 08:06:15;;;;;;;51.25;29.82;;;;;;;9.69;60.86;99825.11;1773982;77;21218;-71
2021/03/13 08:08:50;;;;;;;57.30;30.85;;;;;;;9.69;60.06;99821.17;1767834;80;21649;-73
2021/03/13 08:11:19;;;;;;;63.85;31.55;;;;;;;10.00;58.44;99823.91;1763388;80;21155;-71
2021/03/13 08:13:50;;;;;;;67.55;32.13;;;;;;;10.21;58.68;99823.05;1788285;79;21090;-71
2021/03/13 08:16:36;;;;;;;67.78;31.65;;;;;;;10.57;57.54;99826.45;1795862;79;21366;-70
2021/03/13 08:19:27;;;;;;;73.60;33.38;;;;;;;10.98;55.21;99833.05;1756260;80;21222;-71
2021/03/13 08:22:19;;;;;;;82.62;33.48;;;;;;;11.41;54.91;99823.25;1841815;75;21199;-68
2021/03/13 08:24:53;;;;;;;74.30;34.48;;;;;;;11.73;54.60;99822.20;1854346;76;21159;-70
2021/03/13 08:27:40;;;;;;;89.67;35.92;;;;;;;11.88;52.90;99816.72;1858974;76;21603;-67
2021/03/13 08:30:21;;;;;;;88.22;33.75;;;;;;;11.98;53.09;99814.50;1859154;75;21365;-68
2021/03/13 08:33:03;;;;;;;89.13;31.87;;;;;;;11.66;53.08;99819.47;1860905;76;21283;-69
2021/03/13 08:35:43;;;;;;;66.50;30.57;;;;;;;11.19;53.62;99819.86;1861739;76;21136;-68
2021/03/13 08:38:14;;;;;;;62.33;30.52;;;;;;;10.64;54.65;99825.27;1799332;78;21230;-71
2021/03/13 08:40:48;;;;;;;50.48;30.15;;;;;;;10.42;56.10;99824.00;1832377;77;21585;-72
2021/03/13 08:43:40;;;;;;;49.05;28.80;;;;;;;10.04;56.21;99828.14;1828156;78;21375;-71
2021/03/13 08:46:44;;;;;;;60.30;33.63;;;;;;;9.66;57.84;99831.35;1824978;78;21713;-71
2021/03/13 08:49:27;;;;;;;53.80;32.48;;;;;;;9.27;58.68;99827.56;1788990;80;21218;-72
2021/03/13 08:52:18;;;;;;;54.98;31.37;;;;;;;9.17;59.15;99829.67;1757349;79;21201;-70
2021/03/13 08:54:48;;;;;;;56.98;33.08;;;;;;;9.35;59.56;99832.94;1796877;79;21167;-69
2021/03/13 08:57:28;;;;;;;56.67;32.80;;;;;;;8.90;60.14;99831.03;1801232;78;22232;-69
2021/03/13 09:00:00;;;;;;;66.02;38.23;;;;;;;8.50;61.25;99832.41;1798151;78;21189;-70
2021/03/13 09:02:34;;;;;;;57.83;35.10;;;;;;;8.60;61.76;99831.20;1795857;78;21171;-69
2021/03/13 09:05:20;;;;;;;50.00;31.40;;;;;;;8.88;60.77;99832.89;1793378;78;21226;-69
2021/03/13 09:07:55;;;;;;;58.83;33.70;;;;;;;9.09;60.65;99829.95;1820692;76;21096;-71
2021/03/13 09:10:24;;;;;;;58.40;36.05;;;;;;;9.05;59.67;99838.85;1820320;77;21366;-72
2021/03/13 09:12:53;;;;;;;56.65;33.95;;;;;;;8.91;59.97;99831.91;1845128;76;21145;-73
2021/03/13 09:15:22;;;;;;;57.58;33.10;;;;;;;8.51;61.16;99838.08;1850222;76;21147;-72
2021/03/13 09:17:50;;;;;;;53.75;33.35;;;;;;;8.28;62.66;99835.28;1846907;76;21144;-72
2021/03/13 09:20:19;;;;;;;51.45;32.25;;;;;;;8.15;63.43;99839.63;1834145;76;21163;-72
2021/03/13 09:22:48;;;;;;;51.73;31.02;;;;;;;8.03;63.62;99836.52;1775283;77;21196;-65
2021/03/13 09:25:19;;;;;;;50.85;28.85;;;;;;;7.74;64.56;99835.20;1736152;81;21197;-68
2021/03/13 09:27:51;;;;;;;;;;;;;;;7.42;65.01;99833.98;1772839;80;21158;-66
2021/03/13 09:30:22;;;;;;;55.25;30.82;;;;;;;7.16;66.23;99846.52;1741033;80;20810;-67
2021/03/13 09:32:52;;;;;;;57.23;33.40;;;;;;;7.04;66.33;99847.69;1762808;80;21174;-67
2021/03/13 09:35:25;;;;;;;49.98;30.15;;;;;;;6.83;67.08;99843.45;1783822;80;21382;-68
2021/03/13 09:37:53;;;;;;;65.05;35.35;;;;;;;6.74;67.49;99846.31;1782418;79;21163;-72
2021/03/13 09:40:25;;;;;;;67.82;35.13;;;;;;;6.78;67.46;99842.69;1829231;77;21194;-72
2021/03/13 09:42:55;;;;;;;62.83;33.90;;;;;;;7.02;67.44;99844.28;1823346;77;21299;-72
2021/03/13 09:45:24;;;;;;;61.20;34.13;;;;;;;6.91;66.98;99842.78;1821383;78;21148;-72
2021/03/13 09:48:00;;;;;;;56.08;30.88;;;;;;;6.85;67.92;99843.39;1835055;77;21806;-71
2021/03/13 09:50:35;;;;;;;49.98;28.02;;;;;;;6.71;67.68;99843.75;1833376;78;21165;-72
2021/03/13 09:53:06;;;;;;;54.58;32.03;;;;;;;6.50;68.24;99842.09;1799918;77;21113;-67
2021/03/13 09:55:36;;;;;;;62.50;34.43;;;;;;;6.48;68.95;99852.19;1781241;79;21156;-66
2021/03/13 09:58:04;;;;;;;57.88;34.15;;;;;;;6.92;68.14;99848.45;1759668;81;21188;-68
2021/03/13 10:00:35;;;;;;;53.30;30.75;;;;;;;7.51;67.36;99840.27;1763150;81;21331;-67
2021/03/13 10:03:11;;;;;;;53.00;30.40;;;;;;;8.04;64.85;99848.28;1760939;80;21192;-65
2021/03/13 10:05:40;;;;;;;51.40;30.05;;;;;;;8.25;63.84;99840.64;1763775;80;21176;-66
2021/03/13 10:08:17;;;;;;;51.83;30.70;;;;;;;8.21;62.26;99845.11;1824359;75;21602;-67
2021/03/13 10:13:30;;;;;;;56.50;33.95;;;;;;;8.72;61.11;99836.92;1823834;78;29242;-69
2021/03/13 10:15:58;;;;;;;54.95;33.70;;;;;;;9.19;60.89;99843.61;1758307;80;21621;-69
2021/03/13 10:18:28;;;;;;;51.18;31.27;;;;;;;9.49;59.00;99840.78;1740062;79;21647;-67
2021/03/13 10:21:08;;;;;;;51.35;29.87;;;;;;;9.88;59.09;99844.52;1730553;81;21163;-69
2021/03/13 10:23:38;;;;;;;44.73;29.35;;;;;;;10.42;57.46;99833.66;1650308;85;21232;-67
2021/03/13 10:26:10;;;;;;;48.60;30.25;;;;;;;10.80;57.39;99828.58;1641530;87;21187;-66
2021/03/13 10:28:40;;;;;;;46.10;29.32;;;;;;;11.02;53.69;99836.39;1632723;87;21478;-67
2021/03/13 10:31:19;;;;;;;52.62;32.63;;;;;;;11.28;53.33;99829.99;1601635;87;21213;-67
2021/03/13 10:33:46;;;;;;;50.65;31.57;;;;;;;11.49;52.70;99826.37;1637338;87;21662;-67
2021/03/13 10:36:19;;;;;;;44.65;29.50;;;;;;;11.63;52.60;99825.74;1646125;80;21220;-70
2021/03/13 10:38:52;;;;;;;44.33;29.35;;;;;;;11.66;50.85;99827.38;1710801;82;21680;-68
2021/03/13 10:41:22;;;;;;;46.10;29.25;;;;;;;11.59;51.32;99829.91;1720891;81;21172;-68
2021/03/13 10:43:54;;;;;;;49.35;30.77;;;;;;;11.32;50.90;99842.13;1722497;82;22298;-69
2021/03/13 10:46:26;;;;;;;50.30;32.42;;;;;;;10.56;53.09;99839.23;1724406;82;21186;-68
2021/03/13 10:48:59;;;;;;;52.62;27.85;;;;;;;10.29;54.95;99843.38;1722130;82;21635;-68
2021/03/13 10:51:46;;;;;;;50.60;29.85;;;;;;;10.05;54.28;99838.62;1722289;78;21097;-68
2021/03/13 10:54:30;;;;;;;55.38;32.15;;;;;;;9.90;55.29;99843.16;1720373;82;21158;-68
2021/03/13 10:57:07;;;;;;;53.00;30.88;;;;;;;9.87;55.16;99846.77;1719102;82;21381;-67
2021/03/13 10:59:37;;;;;;;54.55;31.52;;;;;;;9.76;54.89;99842.38;1725183;82;21250;-68
2021/03/13 11:02:05;;;;;;;49.10;29.25;;;;;;;9.64;55.26;99841.53;1734054;82;21175;-68
2021/03/13 11:04:33;;;;;;;53.60;31.10;;;;;;;9.34;56.04;99843.06;1732729;82;21159;-68
2021/03/13 11:07:01;;;;;;;54.95;32.80;;;;;;;9.35;56.59;99834.25;1724713;81;21568;-73
2021/03/13 11:09:29;;;;;;;50.15;29.48;;;;;;;9.50;57.06;99839.85;1703945;84;21811;-73
2021/03/13 11:11:57;;;;;;;47.03;28.73;;;;;;;9.65;56.37;99841.92;1704767;84;21223;-73
2021/03/13 11:14:25;;;;;;;49.03;30.05;;;;;;;9.54;56.21;99836.20;1704332;84;21180;-72
2021/03/13 11:16:55;;;;;;;47.58;28.10;;;;;;;9.49;56.66;99840.31;1727657;82;21198;-73
2021/03/13 11:19:25;;;;;;;47.90;27.37;;;;;;;9.45;56.31;99834.34;1675988;84;21622;-72
2021/03/13 11:21:59;;;;;;;47.43;28.60;;;;;;;9.47;55.76;99832.09;1708856;76;21450;-68
2021/03/13 11:24:29;;;;;;;45.52;28.65;;;;;;;9.44;55.90;99826.03;1830489;77;21243;-67
2021/03/13 11:26:57;;;;;;;51.23;30.08;;;;;;;9.67;55.74;99824.31;1815144;78;21572;-69
2021/03/13 11:29:25;;;;;;;49.40;27.77;;;;;;;9.86;55.70;99825.77;1800152;78;21133;-67
2021/03/13 11:31:53;;;;;;;41.15;26.40;;;;;;;9.98;55.81;99823.11;1808181;78;21161;-67
2021/03/13 11:34:22;;;;;;;48.28;27.77;;;;;;;10.15;54.46;99824.63;1828382;77;21266;-66
2021/03/13 11:36:49;;;;;;;45.80;28.10;;;;;;;10.07;54.00;99821.44;1792200;78;21333;-71
2021/03/13 11:39:17;;;;;;;46.08;28.15;;;;;;;10.03;54.94;99821.16;1742047;80;21160;-72
2021/03/13 11:41:47;;;;;;;41.90;26.17;;;;;;;10.15;54.32;99818.05;1735280;82;21208;-72
2021/03/13 11:44:15;;;;;;;38.73;24.30;;;;;;;10.36;53.76;99815.50;1739500;80;21297;-71
2021/03/13 11:46:45;;;;;;;39.03;23.62;;;;;;;10.28;54.17;99810.09;1740583;80;22519;-70
2021/03/13 11:49:13;;;;;;;37.88;23.90;;;;;;;10.30;53.48;99808.70;1737498;80;22386;-71